sensor_id;sensor_type;location;lat;lon;timestamp;temperature;humidity
74809;DHT22;63338;39.544;2.596;2022-12-18T00:03:35;12.90;90.60
74809;DHT22;63338;39.544;2.596;2022-12-18T00:06:02;12.90;90.50
74809;DHT22;63338;39.544;2.596;2022-12-18T00:08:28;12.80;90.50
74809;DHT22;63338;39.544;2.596;2022-12-18T00:10:54;12.80;91.00
74809;DHT22;63338;39.544;2.596;2022-12-18T00:13:20;12.90;91.10
74809;DHT22;63338;39.544;2.596;2022-12-18T00:15:46;12.80;91.20
74809;DHT22;63338;39.544;2.596;2022-12-18T00:18:12;12.80;91.30
74809;DHT22;63338;39.544;2.596;2022-12-18T00:20:39;12.80;91.40
74809;DHT22;63338;39.544;2.596;2022-12-18T00:23:06;12.90;91.50
74809;DHT22;63338;39.544;2.596;2022-12-18T00:25:36;12.90;91.60
74809;DHT22;63338;39.544;2.596;2022-12-18T00:28:03;12.90;91.60
74809;DHT22;63338;39.544;2.596;2022-12-18T00:30:29;12.90;91.30
74809;DHT22;63338;39.544;2.596;2022-12-18T00:32:56;12.90;91.40
74809;DHT22;63338;39.544;2.596;2022-12-18T00:35:23;12.80;91.70
74809;DHT22;63338;39.544;2.596;2022-12-18T00:37:49;12.80;91.60
74809;DHT22;63338;39.544;2.596;2022-12-18T00:40:15;12.80;92.10
74809;DHT22;63338;39.544;2.596;2022-12-18T00:42:41;12.80;92.40
74809;DHT22;63338;39.544;2.596;2022-12-18T00:45:30;12.80;92.50
74809;DHT22;63338;39.544;2.596;2022-12-18T00:47:57;12.80;91.90
74809;DHT22;63338;39.544;2.596;2022-12-18T00:50:24;12.80;92.40
74809;DHT22;63338;39.544;2.596;2022-12-18T00:52:51;12.90;92.40
74809;DHT22;63338;39.544;2.596;2022-12-18T00:55:18;12.90;92.30
74809;DHT22;63338;39.544;2.596;2022-12-18T00:57:44;12.80;91.90
74809;DHT22;63338;39.544;2.596;2022-12-18T01:00:13;12.80;92.00
74809;DHT22;63338;39.544;2.596;2022-12-18T01:02:40;12.90;92.10
74809;DHT22;63338;39.544;2.596;2022-12-18T01:05:07;12.90;91.90
74809;DHT22;63338;39.544;2.596;2022-12-18T01:07:33;12.80;91.70
74809;DHT22;63338;39.544;2.596;2022-12-18T01:09:59;12.70;91.80
74809;DHT22;63338;39.544;2.596;2022-12-18T01:12:25;12.60;93.40
74809;DHT22;63338;39.544;2.596;2022-12-18T01:14:52;12.70;93.30
74809;DHT22;63338;39.544;2.596;2022-12-18T01:17:31;12.70;93.40
74809;DHT22;63338;39.544;2.596;2022-12-18T01:36:03;12.70;91.50
74809;DHT22;63338;39.544;2.596;2022-12-18T01:39:30;12.70;91.80
74809;DHT22;63338;39.544;2.596;2022-12-18T01:42:39;12.60;93.30
74809;DHT22;63338;39.544;2.596;2022-12-18T01:45:59;12.70;92.30
74809;DHT22;63338;39.544;2.596;2022-12-18T01:49:26;12.60;93.40
74809;DHT22;63338;39.544;2.596;2022-12-18T01:56:55;12.60;92.80
74809;DHT22;63338;39.544;2.596;2022-12-18T02:00:30;12.60;93.40
74809;DHT22;63338;39.544;2.596;2022-12-18T02:07:53;12.50;93.50
74809;DHT22;63338;39.544;2.596;2022-12-18T02:14:50;12.60;94.00
74809;DHT22;63338;39.544;2.596;2022-12-18T02:18:16;12.60;93.90
74809;DHT22;63338;39.544;2.596;2022-12-18T02:22:06;12.50;93.70
74809;DHT22;63338;39.544;2.596;2022-12-18T02:28:49;12.40;94.20
74809;DHT22;63338;39.544;2.596;2022-12-18T02:31:36;12.30;94.30
74809;DHT22;63338;39.544;2.596;2022-12-18T02:34:07;12.40;94.00
74809;DHT22;63338;39.544;2.596;2022-12-18T02:36:40;12.30;93.90
74809;DHT22;63338;39.544;2.596;2022-12-18T02:39:11;12.40;94.20
74809;DHT22;63338;39.544;2.596;2022-12-18T02:41:45;12.30;94.60
74809;DHT22;63338;39.544;2.596;2022-12-18T02:44:29;12.30;94.60
74809;DHT22;63338;39.544;2.596;2022-12-18T02:46:58;12.50;94.50
74809;DHT22;63338;39.544;2.596;2022-12-18T02:49:48;12.40;94.40
74809;DHT22;63338;39.544;2.596;2022-12-18T02:57:44;12.30;94.30
74809;DHT22;63338;39.544;2.596;2022-12-18T03:00:19;12.30;94.60
74809;DHT22;63338;39.544;2.596;2022-12-18T03:07:57;12.40;94.70
74809;DHT22;63338;39.544;2.596;2022-12-18T03:10:29;12.40;94.40
74809;DHT22;63338;39.544;2.596;2022-12-18T03:13:06;12.30;94.20
74809;DHT22;63338;39.544;2.596;2022-12-18T03:15:38;12.30;94.20
74809;DHT22;63338;39.544;2.596;2022-12-18T03:18:13;12.40;94.20
74809;DHT22;63338;39.544;2.596;2022-12-18T03:20:43;12.30;94.00
74809;DHT22;63338;39.544;2.596;2022-12-18T03:23:14;12.30;93.90
74809;DHT22;63338;39.544;2.596;2022-12-18T03:25:43;12.10;93.90
74809;DHT22;63338;39.544;2.596;2022-12-18T03:28:21;12.10;94.20
74809;DHT22;63338;39.544;2.596;2022-12-18T03:30:50;12.10;94.40
74809;DHT22;63338;39.544;2.596;2022-12-18T03:35:53;12.20;93.90
74809;DHT22;63338;39.544;2.596;2022-12-18T03:38:22;12.10;93.70
74809;DHT22;63338;39.544;2.596;2022-12-18T03:43:51;12.00;94.50
74809;DHT22;63338;39.544;2.596;2022-12-18T03:51:57;12.00;94.50
74809;DHT22;63338;39.544;2.596;2022-12-18T03:54:26;11.90;94.40
74809;DHT22;63338;39.544;2.596;2022-12-18T03:57:08;11.90;94.00
74809;DHT22;63338;39.544;2.596;2022-12-18T03:59:39;12.00;94.10
74809;DHT22;63338;39.544;2.596;2022-12-18T04:02:07;11.90;94.30
74809;DHT22;63338;39.544;2.596;2022-12-18T04:04:35;11.90;94.30
74809;DHT22;63338;39.544;2.596;2022-12-18T04:07:04;11.80;94.30
74809;DHT22;63338;39.544;2.596;2022-12-18T04:09:32;11.80;94.30
74809;DHT22;63338;39.544;2.596;2022-12-18T04:11:59;11.90;94.30
74809;DHT22;63338;39.544;2.596;2022-12-18T04:14:25;11.80;94.40
74809;DHT22;63338;39.544;2.596;2022-12-18T04:16:56;11.90;94.50
74809;DHT22;63338;39.544;2.596;2022-12-18T04:19:22;11.70;94.70
74809;DHT22;63338;39.544;2.596;2022-12-18T04:21:49;11.80;94.80
74809;DHT22;63338;39.544;2.596;2022-12-18T04:24:15;11.90;94.80
74809;DHT22;63338;39.544;2.596;2022-12-18T04:26:41;11.80;94.60
74809;DHT22;63338;39.544;2.596;2022-12-18T04:29:07;11.70;94.50
74809;DHT22;63338;39.544;2.596;2022-12-18T04:31:33;11.70;94.40
74809;DHT22;63338;39.544;2.596;2022-12-18T04:34:00;11.80;94.50
74809;DHT22;63338;39.544;2.596;2022-12-18T04:36:26;11.70;94.50
74809;DHT22;63338;39.544;2.596;2022-12-18T04:38:52;11.70;94.30
74809;DHT22;63338;39.544;2.596;2022-12-18T04:41:18;11.60;94.40
74809;DHT22;63338;39.544;2.596;2022-12-18T04:43:44;11.70;94.60
74809;DHT22;63338;39.544;2.596;2022-12-18T04:46:13;11.60;94.80
74809;DHT22;63338;39.544;2.596;2022-12-18T04:48:39;11.60;94.50
74809;DHT22;63338;39.544;2.596;2022-12-18T04:51:08;11.70;94.30
74809;DHT22;63338;39.544;2.596;2022-12-18T04:53:34;11.60;94.10
74809;DHT22;63338;39.544;2.596;2022-12-18T04:56:06;11.70;94.20
74809;DHT22;63338;39.544;2.596;2022-12-18T04:58:32;11.60;94.60
74809;DHT22;63338;39.544;2.596;2022-12-18T05:00:58;11.70;94.60
74809;DHT22;63338;39.544;2.596;2022-12-18T05:03:26;11.60;94.80
74809;DHT22;63338;39.544;2.596;2022-12-18T05:05:53;11.60;94.60
74809;DHT22;63338;39.544;2.596;2022-12-18T05:08:19;11.60;94.60
74809;DHT22;63338;39.544;2.596;2022-12-18T05:10:45;11.60;94.50
74809;DHT22;63338;39.544;2.596;2022-12-18T05:13:11;11.60;94.90
74809;DHT22;63338;39.544;2.596;2022-12-18T05:15:38;11.50;94.70
74809;DHT22;63338;39.544;2.596;2022-12-18T05:18:04;11.60;94.40
74809;DHT22;63338;39.544;2.596;2022-12-18T05:20:30;11.40;94.90
74809;DHT22;63338;39.544;2.596;2022-12-18T05:22:56;11.50;95.10
74809;DHT22;63338;39.544;2.596;2022-12-18T05:25:23;11.50;95.00
74809;DHT22;63338;39.544;2.596;2022-12-18T05:27:50;11.50;94.90
74809;DHT22;63338;39.544;2.596;2022-12-18T05:30:16;11.60;94.70
74809;DHT22;63338;39.544;2.596;2022-12-18T05:32:45;11.50;94.80
74809;DHT22;63338;39.544;2.596;2022-12-18T05:35:11;11.50;94.70
74809;DHT22;63338;39.544;2.596;2022-12-18T05:37:37;11.40;94.50
74809;DHT22;63338;39.544;2.596;2022-12-18T05:40:04;11.50;94.60
74809;DHT22;63338;39.544;2.596;2022-12-18T05:42:30;11.50;94.60
74809;DHT22;63338;39.544;2.596;2022-12-18T05:44:57;11.50;94.60
74809;DHT22;63338;39.544;2.596;2022-12-18T05:47:23;11.40;94.60
74809;DHT22;63338;39.544;2.596;2022-12-18T05:49:49;11.40;94.80
74809;DHT22;63338;39.544;2.596;2022-12-18T05:52:15;11.40;95.20
74809;DHT22;63338;39.544;2.596;2022-12-18T05:54:42;11.40;95.30
74809;DHT22;63338;39.544;2.596;2022-12-18T05:57:08;11.40;95.00
74809;DHT22;63338;39.544;2.596;2022-12-18T05:59:34;11.40;94.80
74809;DHT22;63338;39.544;2.596;2022-12-18T06:02:00;11.40;95.00
74809;DHT22;63338;39.544;2.596;2022-12-18T06:04:27;11.40;95.00
74809;DHT22;63338;39.544;2.596;2022-12-18T06:06:54;11.40;94.90
74809;DHT22;63338;39.544;2.596;2022-12-18T06:09:20;11.40;95.10
74809;DHT22;63338;39.544;2.596;2022-12-18T06:11:46;11.30;95.10
74809;DHT22;63338;39.544;2.596;2022-12-18T06:14:12;11.50;95.20
74809;DHT22;63338;39.544;2.596;2022-12-18T06:16:38;11.30;95.10
74809;DHT22;63338;39.544;2.596;2022-12-18T06:19:05;11.30;95.10
74809;DHT22;63338;39.544;2.596;2022-12-18T06:21:32;11.40;95.10
74809;DHT22;63338;39.544;2.596;2022-12-18T06:23:59;11.40;95.10
74809;DHT22;63338;39.544;2.596;2022-12-18T06:26:25;11.30;95.40
74809;DHT22;63338;39.544;2.596;2022-12-18T06:28:51;11.30;95.50
74809;DHT22;63338;39.544;2.596;2022-12-18T06:31:17;11.30;95.40
74809;DHT22;63338;39.544;2.596;2022-12-18T06:33:43;11.40;95.40
74809;DHT22;63338;39.544;2.596;2022-12-18T06:36:13;11.50;95.40
74809;DHT22;63338;39.544;2.596;2022-12-18T06:38:41;11.40;95.30
74809;DHT22;63338;39.544;2.596;2022-12-18T06:41:11;11.40;95.40
74809;DHT22;63338;39.544;2.596;2022-12-18T06:43:38;11.40;95.50
74809;DHT22;63338;39.544;2.596;2022-12-18T06:46:05;11.40;95.40
74809;DHT22;63338;39.544;2.596;2022-12-18T06:48:34;11.40;95.40
74809;DHT22;63338;39.544;2.596;2022-12-18T06:51:01;11.40;95.50
74809;DHT22;63338;39.544;2.596;2022-12-18T06:53:27;11.30;96.00
74809;DHT22;63338;39.544;2.596;2022-12-18T06:56:03;11.40;95.80
74809;DHT22;63338;39.544;2.596;2022-12-18T06:58:30;11.20;95.70
74809;DHT22;63338;39.544;2.596;2022-12-18T07:01:07;11.30;95.60
74809;DHT22;63338;39.544;2.596;2022-12-18T07:03:33;11.30;95.50
74809;DHT22;63338;39.544;2.596;2022-12-18T07:05:59;11.30;96.00
74809;DHT22;63338;39.544;2.596;2022-12-18T07:08:26;11.30;96.00
74809;DHT22;63338;39.544;2.596;2022-12-18T07:10:52;11.30;96.00
74809;DHT22;63338;39.544;2.596;2022-12-18T07:13:19;11.40;95.90
74809;DHT22;63338;39.544;2.596;2022-12-18T07:15:45;11.40;96.20
74809;DHT22;63338;39.544;2.596;2022-12-18T07:18:11;11.50;96.30
74809;DHT22;63338;39.544;2.596;2022-12-18T07:20:38;11.60;96.70
74809;DHT22;63338;39.544;2.596;2022-12-18T07:23:05;11.60;96.90
74809;DHT22;63338;39.544;2.596;2022-12-18T07:25:35;11.40;96.80
74809;DHT22;63338;39.544;2.596;2022-12-18T07:28:02;11.50;96.90
74809;DHT22;63338;39.544;2.596;2022-12-18T07:30:28;11.60;97.20
74809;DHT22;63338;39.544;2.596;2022-12-18T07:32:54;11.60;97.10
74809;DHT22;63338;39.544;2.596;2022-12-18T07:35:20;11.60;97.10
74809;DHT22;63338;39.544;2.596;2022-12-18T07:37:47;11.60;97.10
74809;DHT22;63338;39.544;2.596;2022-12-18T07:40:13;11.70;97.20
74809;DHT22;63338;39.544;2.596;2022-12-18T07:42:39;11.70;97.10
74809;DHT22;63338;39.544;2.596;2022-12-18T07:45:05;11.70;97.10
74809;DHT22;63338;39.544;2.596;2022-12-18T07:47:34;11.70;97.10
74809;DHT22;63338;39.544;2.596;2022-12-18T07:50:02;11.80;97.10
74809;DHT22;63338;39.544;2.596;2022-12-18T07:52:28;11.70;97.10
74809;DHT22;63338;39.544;2.596;2022-12-18T07:54:55;11.90;96.90
74809;DHT22;63338;39.544;2.596;2022-12-18T07:57:21;12.00;97.00
74809;DHT22;63338;39.544;2.596;2022-12-18T07:59:47;12.20;97.10
74809;DHT22;63338;39.544;2.596;2022-12-18T08:02:14;12.10;97.10
74809;DHT22;63338;39.544;2.596;2022-12-18T08:04:40;12.10;97.10
74809;DHT22;63338;39.544;2.596;2022-12-18T08:07:06;12.40;97.10
74809;DHT22;63338;39.544;2.596;2022-12-18T08:09:32;12.50;97.00
74809;DHT22;63338;39.544;2.596;2022-12-18T08:11:59;12.60;96.70
74809;DHT22;63338;39.544;2.596;2022-12-18T08:14:28;12.70;96.80
74809;DHT22;63338;39.544;2.596;2022-12-18T08:16:54;12.90;95.40
74809;DHT22;63338;39.544;2.596;2022-12-18T08:19:20;12.80;95.20
74809;DHT22;63338;39.544;2.596;2022-12-18T08:21:47;13.00;95.20
74809;DHT22;63338;39.544;2.596;2022-12-18T08:24:16;13.10;95.20
74809;DHT22;63338;39.544;2.596;2022-12-18T08:26:42;13.20;94.80
74809;DHT22;63338;39.544;2.596;2022-12-18T08:29:09;13.30;94.70
74809;DHT22;63338;39.544;2.596;2022-12-18T08:31:36;13.40;94.30
74809;DHT22;63338;39.544;2.596;2022-12-18T08:34:05;13.50;94.10
74809;DHT22;63338;39.544;2.596;2022-12-18T08:36:31;13.60;94.00
74809;DHT22;63338;39.544;2.596;2022-12-18T08:38:57;13.80;93.80
74809;DHT22;63338;39.544;2.596;2022-12-18T08:41:23;14.20;93.80
74809;DHT22;63338;39.544;2.596;2022-12-18T08:43:52;15.00;93.70
74809;DHT22;63338;39.544;2.596;2022-12-18T08:46:57;16.00;89.70
74809;DHT22;63338;39.544;2.596;2022-12-18T08:49:23;17.40;84.70
74809;DHT22;63338;39.544;2.596;2022-12-18T08:51:54;18.60;80.30
74809;DHT22;63338;39.544;2.596;2022-12-18T08:54:20;19.40;77.00
74809;DHT22;63338;39.544;2.596;2022-12-18T08:56:46;20.40;74.90
74809;DHT22;63338;39.544;2.596;2022-12-18T08:59:13;21.30;70.90
74809;DHT22;63338;39.544;2.596;2022-12-18T09:01:42;22.00;69.70
74809;DHT22;63338;39.544;2.596;2022-12-18T09:04:12;22.60;67.40
74809;DHT22;63338;39.544;2.596;2022-12-18T09:06:38;23.20;67.00
74809;DHT22;63338;39.544;2.596;2022-12-18T09:09:11;23.80;64.90
74809;DHT22;63338;39.544;2.596;2022-12-18T09:11:39;24.30;62.80
74809;DHT22;63338;39.544;2.596;2022-12-18T09:14:06;24.80;61.80
74809;DHT22;63338;39.544;2.596;2022-12-18T09:16:32;25.30;60.40
74809;DHT22;63338;39.544;2.596;2022-12-18T09:19:02;25.90;59.60
74809;DHT22;63338;39.544;2.596;2022-12-18T09:21:34;26.30;58.00
74809;DHT22;63338;39.544;2.596;2022-12-18T09:24:01;26.70;57.20
74809;DHT22;63338;39.544;2.596;2022-12-18T09:26:27;26.80;56.20
74809;DHT22;63338;39.544;2.596;2022-12-18T09:28:54;27.10;56.30
74809;DHT22;63338;39.544;2.596;2022-12-18T09:31:21;27.30;55.60
74809;DHT22;63338;39.544;2.596;2022-12-18T09:33:53;27.60;55.60
74809;DHT22;63338;39.544;2.596;2022-12-18T09:36:23;27.70;54.70
74809;DHT22;63338;39.544;2.596;2022-12-18T09:38:52;28.00;54.80
74809;DHT22;63338;39.544;2.596;2022-12-18T09:41:53;28.10;54.80
74809;DHT22;63338;39.544;2.596;2022-12-18T09:49:47;28.60;53.50
74809;DHT22;63338;39.544;2.596;2022-12-18T09:52:35;28.80;53.90
74809;DHT22;63338;39.544;2.596;2022-12-18T09:55:22;29.00;53.20
74809;DHT22;63338;39.544;2.596;2022-12-18T09:57:56;29.20;52.20
74809;DHT22;63338;39.544;2.596;2022-12-18T10:00:25;29.50;52.00
74809;DHT22;63338;39.544;2.596;2022-12-18T10:03:09;29.70;52.00
74809;DHT22;63338;39.544;2.596;2022-12-18T10:06:41;29.80;51.80
74809;DHT22;63338;39.544;2.596;2022-12-18T10:09:15;29.90;51.10
74809;DHT22;63338;39.544;2.596;2022-12-18T10:17:36;29.80;51.10
74809;DHT22;63338;39.544;2.596;2022-12-18T10:23:14;30.00;50.70
74809;DHT22;63338;39.544;2.596;2022-12-18T10:26:05;30.10;50.70
74809;DHT22;63338;39.544;2.596;2022-12-18T10:28:34;30.00;50.60
74809;DHT22;63338;39.544;2.596;2022-12-18T10:31:27;30.10;51.00
74809;DHT22;63338;39.544;2.596;2022-12-18T10:33:56;30.30;50.30
74809;DHT22;63338;39.544;2.596;2022-12-18T10:36:24;30.40;50.40
74809;DHT22;63338;39.544;2.596;2022-12-18T10:38:50;30.40;50.50
74809;DHT22;63338;39.544;2.596;2022-12-18T10:41:26;30.40;50.20
74809;DHT22;63338;39.544;2.596;2022-12-18T10:44:20;30.40;49.90
74809;DHT22;63338;39.544;2.596;2022-12-18T10:46:53;30.30;50.10
74809;DHT22;63338;39.544;2.596;2022-12-18T10:49:27;30.40;50.10
74809;DHT22;63338;39.544;2.596;2022-12-18T10:52:26;30.40;50.00
74809;DHT22;63338;39.544;2.596;2022-12-18T10:54:59;30.60;50.10
74809;DHT22;63338;39.544;2.596;2022-12-18T11:00:18;30.60;49.60
74809;DHT22;63338;39.544;2.596;2022-12-18T11:02:45;30.50;49.60
74809;DHT22;63338;39.544;2.596;2022-12-18T11:05:30;30.60;49.30
74809;DHT22;63338;39.544;2.596;2022-12-18T11:07:57;30.50;49.30
74809;DHT22;63338;39.544;2.596;2022-12-18T11:10:31;30.60;49.30
74809;DHT22;63338;39.544;2.596;2022-12-18T11:13:19;30.50;49.50
74809;DHT22;63338;39.544;2.596;2022-12-18T11:15:50;30.50;49.20
74809;DHT22;63338;39.544;2.596;2022-12-18T11:20:52;30.40;49.20
74809;DHT22;63338;39.544;2.596;2022-12-18T11:23:19;30.40;49.40
74809;DHT22;63338;39.544;2.596;2022-12-18T11:26:03;30.40;49.30
74809;DHT22;63338;39.544;2.596;2022-12-18T11:28:53;30.40;49.20
74809;DHT22;63338;39.544;2.596;2022-12-18T11:31:33;30.40;49.00
74809;DHT22;63338;39.544;2.596;2022-12-18T11:34:09;30.40;48.80
74809;DHT22;63338;39.544;2.596;2022-12-18T11:36:46;30.50;49.10
74809;DHT22;63338;39.544;2.596;2022-12-18T11:41:55;30.50;49.10
74809;DHT22;63338;39.544;2.596;2022-12-18T11:44:52;30.40;49.20
74809;DHT22;63338;39.544;2.596;2022-12-18T11:50:00;30.10;49.30
74809;DHT22;63338;39.544;2.596;2022-12-18T11:52:36;29.90;49.30
74809;DHT22;63338;39.544;2.596;2022-12-18T11:55:11;29.90;49.60
74809;DHT22;63338;39.544;2.596;2022-12-18T12:00:22;30.00;49.20
74809;DHT22;63338;39.544;2.596;2022-12-18T12:03:27;30.20;49.30
74809;DHT22;63338;39.544;2.596;2022-12-18T12:41:05;26.70;55.60
74809;DHT22;63338;39.544;2.596;2022-12-18T12:47:12;26.60;55.90
74809;DHT22;63338;39.544;2.596;2022-12-18T12:49:46;26.70;56.20
74809;DHT22;63338;39.544;2.596;2022-12-18T12:56:21;26.60;55.80
74809;DHT22;63338;39.544;2.596;2022-12-18T12:59:19;26.50;55.90
74809;DHT22;63338;39.544;2.596;2022-12-18T13:02:04;26.60;55.60
74809;DHT22;63338;39.544;2.596;2022-12-18T13:10:24;26.80;55.60
74809;DHT22;63338;39.544;2.596;2022-12-18T13:13:06;26.70;55.60
74809;DHT22;63338;39.544;2.596;2022-12-18T13:15:37;26.60;55.70
74809;DHT22;63338;39.544;2.596;2022-12-18T13:20:35;26.50;56.00
74809;DHT22;63338;39.544;2.596;2022-12-18T13:23:38;26.50;56.30
74809;DHT22;63338;39.544;2.596;2022-12-18T13:34:17;26.40;56.30
74809;DHT22;63338;39.544;2.596;2022-12-18T13:36:44;26.20;57.00
74809;DHT22;63338;39.544;2.596;2022-12-18T13:41:37;26.30;57.30
74809;DHT22;63338;39.544;2.596;2022-12-18T13:46:50;26.30;57.30
74809;DHT22;63338;39.544;2.596;2022-12-18T13:49:36;26.20;57.40
74809;DHT22;63338;39.544;2.596;2022-12-18T13:52:23;26.30;57.40
74809;DHT22;63338;39.544;2.596;2022-12-18T13:55:16;26.30;57.20
74809;DHT22;63338;39.544;2.596;2022-12-18T13:57:43;26.30;57.30
74809;DHT22;63338;39.544;2.596;2022-12-18T14:02:52;26.40;56.60
74809;DHT22;63338;39.544;2.596;2022-12-18T14:05:32;26.30;57.40
74809;DHT22;63338;39.544;2.596;2022-12-18T14:08:05;26.30;57.20
74809;DHT22;63338;39.544;2.596;2022-12-18T14:10:32;26.30;57.40
74809;DHT22;63338;39.544;2.596;2022-12-18T14:13:05;26.20;57.40
74809;DHT22;63338;39.544;2.596;2022-12-18T14:15:46;26.10;57.80
74809;DHT22;63338;39.544;2.596;2022-12-18T14:21:00;26.10;57.80
74809;DHT22;63338;39.544;2.596;2022-12-18T14:23:39;25.90;58.10
74809;DHT22;63338;39.544;2.596;2022-12-18T14:28:48;25.60;58.80
74809;DHT22;63338;39.544;2.596;2022-12-18T14:31:23;25.70;59.10
74809;DHT22;63338;39.544;2.596;2022-12-18T14:33:51;25.60;58.60
74809;DHT22;63338;39.544;2.596;2022-12-18T14:36:20;25.70;58.80
74809;DHT22;63338;39.544;2.596;2022-12-18T14:38:55;25.70;59.10
74809;DHT22;63338;39.544;2.596;2022-12-18T14:41:23;25.70;58.80
74809;DHT22;63338;39.544;2.596;2022-12-18T14:43:52;25.60;59.50
74809;DHT22;63338;39.544;2.596;2022-12-18T14:46:38;25.40;59.80
74809;DHT22;63338;39.544;2.596;2022-12-18T14:49:33;25.00;60.50
74809;DHT22;63338;39.544;2.596;2022-12-18T14:52:04;24.60;61.00
74809;DHT22;63338;39.544;2.596;2022-12-18T14:54:32;24.10;62.10
74809;DHT22;63338;39.544;2.596;2022-12-18T14:57:20;23.80;62.70
74809;DHT22;63338;39.544;2.596;2022-12-18T14:59:47;23.30;64.20
74809;DHT22;63338;39.544;2.596;2022-12-18T15:02:22;23.00;65.30
74809;DHT22;63338;39.544;2.596;2022-12-18T15:05:03;22.60;66.10
74809;DHT22;63338;39.544;2.596;2022-12-18T15:07:41;22.30;67.10
74809;DHT22;63338;39.544;2.596;2022-12-18T15:10:19;22.00;67.90
74809;DHT22;63338;39.544;2.596;2022-12-18T15:20:44;21.20;70.10
74809;DHT22;63338;39.544;2.596;2022-12-18T15:26:00;20.80;72.40
74809;DHT22;63338;39.544;2.596;2022-12-18T15:33:44;20.40;74.20
74809;DHT22;63338;39.544;2.596;2022-12-18T15:36:14;20.30;74.40
74809;DHT22;63338;39.544;2.596;2022-12-18T15:38:41;20.20;74.70
74809;DHT22;63338;39.544;2.596;2022-12-18T15:41:15;20.20;74.80
74809;DHT22;63338;39.544;2.596;2022-12-18T15:43:41;20.10;74.90
74809;DHT22;63338;39.544;2.596;2022-12-18T15:46:16;19.90;75.60
74809;DHT22;63338;39.544;2.596;2022-12-18T15:48:45;19.80;75.90
74809;DHT22;63338;39.544;2.596;2022-12-18T15:51:23;19.60;76.10
74809;DHT22;63338;39.544;2.596;2022-12-18T15:53:56;19.60;76.60
74809;DHT22;63338;39.544;2.596;2022-12-18T15:56:23;19.50;76.60
74809;DHT22;63338;39.544;2.596;2022-12-18T15:59:13;19.30;77.20
74809;DHT22;63338;39.544;2.596;2022-12-18T16:01:41;19.10;77.80
74809;DHT22;63338;39.544;2.596;2022-12-18T16:04:13;19.00;78.30
74809;DHT22;63338;39.544;2.596;2022-12-18T16:06:43;18.80;78.60
74809;DHT22;63338;39.544;2.596;2022-12-18T16:09:12;18.70;78.90
74809;DHT22;63338;39.544;2.596;2022-12-18T16:11:42;18.70;79.00
74809;DHT22;63338;39.544;2.596;2022-12-18T16:16:49;18.40;79.60
74809;DHT22;63338;39.544;2.596;2022-12-18T16:19:16;18.30;79.90
74809;DHT22;63338;39.544;2.596;2022-12-18T16:21:43;18.30;80.20
74809;DHT22;63338;39.544;2.596;2022-12-18T16:24:19;18.10;81.60
74809;DHT22;63338;39.544;2.596;2022-12-18T16:26:50;18.00;81.70
74809;DHT22;63338;39.544;2.596;2022-12-18T16:29:37;18.00;81.80
74809;DHT22;63338;39.544;2.596;2022-12-18T16:32:08;17.70;81.80
74809;DHT22;63338;39.544;2.596;2022-12-18T16:34:51;17.80;81.80
74809;DHT22;63338;39.544;2.596;2022-12-18T16:37:32;17.60;82.20
74809;DHT22;63338;39.544;2.596;2022-12-18T16:40:13;17.50;82.20
74809;DHT22;63338;39.544;2.596;2022-12-18T16:43:25;17.40;82.20
74809;DHT22;63338;39.544;2.596;2022-12-18T16:45:51;17.40;82.40
74809;DHT22;63338;39.544;2.596;2022-12-18T16:48:24;17.30;82.60
74809;DHT22;63338;39.544;2.596;2022-12-18T16:50:59;17.10;82.70
74809;DHT22;63338;39.544;2.596;2022-12-18T16:53:25;17.00;83.20
74809;DHT22;63338;39.544;2.596;2022-12-18T16:55:58;17.00;83.30
74809;DHT22;63338;39.544;2.596;2022-12-18T16:58:27;16.90;83.50
74809;DHT22;63338;39.544;2.596;2022-12-18T17:00:56;16.80;83.60
74809;DHT22;63338;39.544;2.596;2022-12-18T17:03:22;16.70;83.90
74809;DHT22;63338;39.544;2.596;2022-12-18T17:05:52;16.70;83.90
74809;DHT22;63338;39.544;2.596;2022-12-18T17:08:18;16.70;84.00
74809;DHT22;63338;39.544;2.596;2022-12-18T17:10:44;16.70;83.80
74809;DHT22;63338;39.544;2.596;2022-12-18T17:13:11;16.60;83.80
74809;DHT22;63338;39.544;2.596;2022-12-18T17:15:40;16.60;84.00
74809;DHT22;63338;39.544;2.596;2022-12-18T17:18:09;16.60;83.80
74809;DHT22;63338;39.544;2.596;2022-12-18T17:20:35;16.50;83.80
74809;DHT22;63338;39.544;2.596;2022-12-18T17:23:02;16.50;83.90
74809;DHT22;63338;39.544;2.596;2022-12-18T17:25:28;16.30;83.80
74809;DHT22;63338;39.544;2.596;2022-12-18T17:27:54;16.30;84.50
74809;DHT22;63338;39.544;2.596;2022-12-18T17:30:20;16.20;84.70
74809;DHT22;63338;39.544;2.596;2022-12-18T17:32:46;16.20;84.70
74809;DHT22;63338;39.544;2.596;2022-12-18T17:35:13;16.10;84.60
74809;DHT22;63338;39.544;2.596;2022-12-18T17:37:39;16.00;84.70
74809;DHT22;63338;39.544;2.596;2022-12-18T17:40:05;15.90;85.00
74809;DHT22;63338;39.544;2.596;2022-12-18T17:42:32;15.90;85.10
74809;DHT22;63338;39.544;2.596;2022-12-18T17:44:58;15.90;84.80
74809;DHT22;63338;39.544;2.596;2022-12-18T17:47:24;15.90;84.80
74809;DHT22;63338;39.544;2.596;2022-12-18T17:49:53;16.00;84.70
74809;DHT22;63338;39.544;2.596;2022-12-18T17:52:19;15.90;84.40
74809;DHT22;63338;39.544;2.596;2022-12-18T17:54:45;15.90;84.50
74809;DHT22;63338;39.544;2.596;2022-12-18T17:57:11;15.90;85.00
74809;DHT22;63338;39.544;2.596;2022-12-18T17:59:37;15.80;85.10
74809;DHT22;63338;39.544;2.596;2022-12-18T18:02:03;15.80;85.00
74809;DHT22;63338;39.544;2.596;2022-12-18T18:04:29;15.70;84.90
74809;DHT22;63338;39.544;2.596;2022-12-18T18:06:55;15.80;84.90
74809;DHT22;63338;39.544;2.596;2022-12-18T18:09:21;15.80;85.20
74809;DHT22;63338;39.544;2.596;2022-12-18T18:11:47;15.80;85.40
74809;DHT22;63338;39.544;2.596;2022-12-18T18:14:36;15.70;85.30
74809;DHT22;63338;39.544;2.596;2022-12-18T18:17:03;15.70;85.50
74809;DHT22;63338;39.544;2.596;2022-12-18T18:19:29;15.80;85.60
74809;DHT22;63338;39.544;2.596;2022-12-18T18:21:55;15.70;85.80
74809;DHT22;63338;39.544;2.596;2022-12-18T18:24:22;15.70;85.70
74809;DHT22;63338;39.544;2.596;2022-12-18T18:26:49;15.60;85.80
74809;DHT22;63338;39.544;2.596;2022-12-18T18:29:19;15.60;86.00
74809;DHT22;63338;39.544;2.596;2022-12-18T18:31:51;15.70;86.30
74809;DHT22;63338;39.544;2.596;2022-12-18T18:34:21;15.50;86.10
74809;DHT22;63338;39.544;2.596;2022-12-18T18:36:48;15.60;85.90
74809;DHT22;63338;39.544;2.596;2022-12-18T18:39:14;15.60;85.90
74809;DHT22;63338;39.544;2.596;2022-12-18T18:41:44;15.60;86.30
74809;DHT22;63338;39.544;2.596;2022-12-18T18:44:10;15.40;86.60
74809;DHT22;63338;39.544;2.596;2022-12-18T18:46:37;15.40;86.50
74809;DHT22;63338;39.544;2.596;2022-12-18T18:49:03;15.50;86.60
74809;DHT22;63338;39.544;2.596;2022-12-18T18:51:30;15.50;86.50
74809;DHT22;63338;39.544;2.596;2022-12-18T18:53:57;15.50;86.30
74809;DHT22;63338;39.544;2.596;2022-12-18T18:56:24;15.50;86.70